sensor_id;sensor_type;location;lat;lon;timestamp;P1;durP1;ratioP1;P2;durP2;ratioP2
17949;SDS011;9100;48.700;9.316;2023-05-16T00:00:50;10.6;;;5.5;;
17949;SDS011;9100;48.700;9.316;2023-05-16T00:01:50;10.6;;;5.5;;
17949;SDS011;9100;48.700;9.316;2023-05-16T00:02:50;10.6;;;5.5;;
17949;SDS011;9100;48.700;9.316;2023-05-16T00:03:50;10.6;;;5.5;;
17949;SDS011;9100;48.700;9.316;2023-05-16T00:04:50;9;;;6;;
17949;SDS011;9100;48.700;9.316;2023-05-16T00:04:52;9.1;;;6;;
17949;SDS011;9100;48.700;9.316;2023-05-16T00:05:50;9.1;;;6;;
17949;SDS011;9100;48.700;9.316;2023-05-16T00:06:50;9.1;;;6;;
17949;SDS011;9100;48.700;9.316;2023-05-16T00:07:50;9.1;;;6;;
17949;SDS011;9100;48.700;9.316;2023-05-16T00:08:50;9.1;;;6;;
17949;SDS011;9100;48.700;9.316;2023-05-16T00:09:50;6.9;;;6.2;;
17949;SDS011;9100;48.700;9.316;2023-05-16T00:09:52;6.8;;;6.1;;
17949;SDS011;9100;48.700;9.316;2023-05-16T00:10:50;6.8;;;6.1;;
17949;SDS011;9100;48.700;9.316;2023-05-16T00:11:50;6.8;;;6.1;;
17949;SDS011;9100;48.700;9.316;2023-05-16T00:12:50;6.8;;;6.1;;
17949;SDS011;9100;48.700;9.316;2023-05-16T00:13:50;6.8;;;6.1;;
17949;SDS011;9100;48.700;9.316;2023-05-16T00:14:50;6.5;;;5.8;;
17949;SDS011;9100;48.700;9.316;2023-05-16T00:14:53;6.5;;;5.7;;
17949;SDS011;9100;48.700;9.316;2023-05-16T00:15:50;6.5;;;5.7;;
17949;SDS011;9100;48.700;9.316;2023-05-16T00:16:50;6.5;;;5.7;;
17949;SDS011;9100;48.700;9.316;2023-05-16T00:17:50;6.5;;;5.7;;
17949;SDS011;9100;48.700;9.316;2023-05-16T00:18:50;6.5;;;5.7;;
17949;SDS011;9100;48.700;9.316;2023-05-16T00:19:50;7.8;;;6;;
17949;SDS011;9100;48.700;9.316;2023-05-16T00:19:53;7.8;;;6;;
17949;SDS011;9100;48.700;9.316;2023-05-16T00:20:50;7.8;;;6;;
17949;SDS011;9100;48.700;9.316;2023-05-16T00:21:50;7.8;;;6;;
17949;SDS011;9100;48.700;9.316;2023-05-16T00:22:50;7.8;;;6;;
17949;SDS011;9100;48.700;9.316;2023-05-16T00:23:50;7.8;;;6;;
17949;SDS011;9100;48.700;9.316;2023-05-16T00:24:50;10.2;;;6.6;;
17949;SDS011;9100;48.700;9.316;2023-05-16T00:24:53;10.3;;;6.6;;
17949;SDS011;9100;48.700;9.316;2023-05-16T00:25:50;10.3;;;6.6;;
17949;SDS011;9100;48.700;9.316;2023-05-16T00:26:50;10.3;;;6.6;;
17949;SDS011;9100;48.700;9.316;2023-05-16T00:27:50;10.3;;;6.6;;
17949;SDS011;9100;48.700;9.316;2023-05-16T00:28:50;10.3;;;6.6;;
17949;SDS011;9100;48.700;9.316;2023-05-16T00:29:50;7.7;;;7;;
17949;SDS011;9100;48.700;9.316;2023-05-16T00:29:52;7.7;;;7;;
17949;SDS011;9100;48.700;9.316;2023-05-16T00:30:50;7.7;;;7;;
17949;SDS011;9100;48.700;9.316;2023-05-16T00:31:50;7.7;;;7;;
17949;SDS011;9100;48.700;9.316;2023-05-16T00:32:50;7.7;;;7;;
17949;SDS011;9100;48.700;9.316;2023-05-16T00:33:50;7.7;;;7;;
17949;SDS011;9100;48.700;9.316;2023-05-16T00:34:50;7;;;6.5;;
17949;SDS011;9100;48.700;9.316;2023-05-16T00:34:52;7;;;6.5;;
17949;SDS011;9100;48.700;9.316;2023-05-16T00:35:50;7;;;6.5;;
17949;SDS011;9100;48.700;9.316;2023-05-16T00:36:50;7;;;6.5;;
17949;SDS011;9100;48.700;9.316;2023-05-16T00:37:50;7;;;6.5;;
17949;SDS011;9100;48.700;9.316;2023-05-16T00:38:50;7;;;6.5;;
17949;SDS011;9100;48.700;9.316;2023-05-16T00:39:50;7.9;;;7.2;;
17949;SDS011;9100;48.700;9.316;2023-05-16T00:39:53;7.9;;;7.2;;
17949;SDS011;9100;48.700;9.316;2023-05-16T00:40:50;7.9;;;7.2;;
17949;SDS011;9100;48.700;9.316;2023-05-16T00:41:50;7.9;;;7.2;;
17949;SDS011;9100;48.700;9.316;2023-05-16T00:42:50;7.9;;;7.2;;
17949;SDS011;9100;48.700;9.316;2023-05-16T00:43:50;7.9;;;7.2;;
17949;SDS011;9100;48.700;9.316;2023-05-16T00:44:50;7.7;;;7;;
17949;SDS011;9100;48.700;9.316;2023-05-16T00:44:53;7.7;;;7;;
17949;SDS011;9100;48.700;9.316;2023-05-16T00:45:50;7.7;;;7;;
17949;SDS011;9100;48.700;9.316;2023-05-16T00:46:50;7.7;;;7;;
17949;SDS011;9100;48.700;9.316;2023-05-16T00:47:50;7.7;;;7;;
17949;SDS011;9100;48.700;9.316;2023-05-16T00:48:50;7.7;;;7;;
17949;SDS011;9100;48.700;9.316;2023-05-16T00:49:50;7.6;;;7;;
17949;SDS011;9100;48.700;9.316;2023-05-16T00:49:52;7.6;;;7;;
17949;SDS011;9100;48.700;9.316;2023-05-16T00:50:50;7.6;;;7;;
17949;SDS011;9100;48.700;9.316;2023-05-16T00:51:50;7.6;;;7;;
17949;SDS011;9100;48.700;9.316;2023-05-16T00:52:50;7.6;;;7;;
17949;SDS011;9100;48.700;9.316;2023-05-16T00:53:50;7.6;;;7;;
17949;SDS011;9100;48.700;9.316;2023-05-16T00:54:50;7;;;6.4;;
17949;SDS011;9100;48.700;9.316;2023-05-16T00:54:53;6.9;;;6.3;;
17949;SDS011;9100;48.700;9.316;2023-05-16T00:55:50;6.9;;;6.3;;
17949;SDS011;9100;48.700;9.316;2023-05-16T00:56:50;6.9;;;6.3;;
17949;SDS011;9100;48.700;9.316;2023-05-16T00:57:50;6.9;;;6.3;;
17949;SDS011;9100;48.700;9.316;2023-05-16T00:58:50;6.9;;;6.3;;
17949;SDS011;9100;48.700;9.316;2023-05-16T00:59:50;9.2;;;6.8;;
17949;SDS011;9100;48.700;9.316;2023-05-16T00:59:53;9.2;;;6.7;;
17949;SDS011;9100;48.700;9.316;2023-05-16T01:00:50;9.2;;;6.7;;
17949;SDS011;9100;48.700;9.316;2023-05-16T01:01:50;9.2;;;6.7;;
17949;SDS011;9100;48.700;9.316;2023-05-16T01:02:50;9.2;;;6.7;;
17949;SDS011;9100;48.700;9.316;2023-05-16T01:03:50;9.2;;;6.7;;
17949;SDS011;9100;48.700;9.316;2023-05-16T01:04:50;7.5;;;6.9;;
17949;SDS011;9100;48.700;9.316;2023-05-16T01:04:53;7.5;;;6.9;;
17949;SDS011;9100;48.700;9.316;2023-05-16T01:05:50;7.5;;;6.9;;
17949;SDS011;9100;48.700;9.316;2023-05-16T01:06:50;7.5;;;6.9;;
17949;SDS011;9100;48.700;9.316;2023-05-16T01:07:50;7.5;;;6.9;;
17949;SDS011;9100;48.700;9.316;2023-05-16T01:08:50;7.5;;;6.9;;
17949;SDS011;9100;48.700;9.316;2023-05-16T01:09:50;8.5;;;7.8;;
17949;SDS011;9100;48.700;9.316;2023-05-16T01:09:52;8.5;;;7.8;;
17949;SDS011;9100;48.700;9.316;2023-05-16T01:10:52;8.5;;;7.8;;
17949;SDS011;9100;48.700;9.316;2023-05-16T01:11:51;8.5;;;7.8;;
17949;SDS011;9100;48.700;9.316;2023-05-16T01:12:52;8.5;;;7.8;;
17949;SDS011;9100;48.700;9.316;2023-05-16T01:13:52;8.5;;;7.8;;
17949;SDS011;9100;48.700;9.316;2023-05-16T01:14:51;8.4;;;7.6;;
17949;SDS011;9100;48.700;9.316;2023-05-16T01:14:55;8.4;;;7.6;;
17949;SDS011;9100;48.700;9.316;2023-05-16T01:15:54;8.4;;;7.6;;
17949;SDS011;9100;48.700;9.316;2023-05-16T01:16:53;8.4;;;7.6;;
17949;SDS011;9100;48.700;9.316;2023-05-16T01:17:52;8.4;;;7.6;;
17949;SDS011;9100;48.700;9.316;2023-05-16T01:18:51;8.4;;;7.6;;
17949;SDS011;9100;48.700;9.316;2023-05-16T01:19:54;8.3;;;7.3;;
17949;SDS011;9100;48.700;9.316;2023-05-16T01:19:55;8.3;;;7.2;;
17949;SDS011;9100;48.700;9.316;2023-05-16T01:20:52;8.3;;;7.2;;
17949;SDS011;9100;48.700;9.316;2023-05-16T01:21:52;8.3;;;7.2;;
17949;SDS011;9100;48.700;9.316;2023-05-16T01:22:51;8.3;;;7.2;;
17949;SDS011;9100;48.700;9.316;2023-05-16T01:23:50;8.3;;;7.2;;
17949;SDS011;9100;48.700;9.316;2023-05-16T01:24:54;10;;;7.4;;
17949;SDS011;9100;48.700;9.316;2023-05-16T01:25:01;9.9;;;7.4;;
17949;SDS011;9100;48.700;9.316;2023-05-16T01:25:55;10;;;7.4;;
17949;SDS011;9100;48.700;9.316;2023-05-16T01:26:50;10;;;7.4;;
17949;SDS011;9100;48.700;9.316;2023-05-16T01:27:50;10;;;7.4;;
17949;SDS011;9100;48.700;9.316;2023-05-16T01:28:50;10;;;7.4;;
17949;SDS011;9100;48.700;9.316;2023-05-16T01:29:54;8.7;;;8;;
17949;SDS011;9100;48.700;9.316;2023-05-16T01:29:54;8.6;;;7.9;;
17949;SDS011;9100;48.700;9.316;2023-05-16T01:30:50;8.6;;;7.9;;
17949;SDS011;9100;48.700;9.316;2023-05-16T01:31:50;8.6;;;7.9;;
17949;SDS011;9100;48.700;9.316;2023-05-16T01:32:50;8.6;;;7.9;;
17949;SDS011;9100;48.700;9.316;2023-05-16T01:33:50;8.6;;;7.9;;
17949;SDS011;9100;48.700;9.316;2023-05-16T01:34:50;8.8;;;8;;
17949;SDS011;9100;48.700;9.316;2023-05-16T01:34:53;8.8;;;8;;
17949;SDS011;9100;48.700;9.316;2023-05-16T01:35:52;8.8;;;8;;
17949;SDS011;9100;48.700;9.316;2023-05-16T01:36:51;8.8;;;8;;
17949;SDS011;9100;48.700;9.316;2023-05-16T01:37:51;8.8;;;8;;
17949;SDS011;9100;48.700;9.316;2023-05-16T01:38:54;8.8;;;8;;
17949;SDS011;9100;48.700;9.316;2023-05-16T01:39:51;8.4;;;7.7;;
17949;SDS011;9100;48.700;9.316;2023-05-16T01:39:54;8.3;;;7.6;;
17949;SDS011;9100;48.700;9.316;2023-05-16T01:40:50;8.3;;;7.6;;
17949;SDS011;9100;48.700;9.316;2023-05-16T01:41:52;8.3;;;7.6;;
17949;SDS011;9100;48.700;9.316;2023-05-16T01:42:50;8.3;;;7.6;;
17949;SDS011;9100;48.700;9.316;2023-05-16T01:43:51;8.3;;;7.6;;
17949;SDS011;9100;48.700;9.316;2023-05-16T01:44:52;9.3;;;8.5;;
17949;SDS011;9100;48.700;9.316;2023-05-16T01:44:53;9.2;;;8.4;;
17949;SDS011;9100;48.700;9.316;2023-05-16T01:45:52;9.2;;;8.4;;
17949;SDS011;9100;48.700;9.316;2023-05-16T01:46:51;9.2;;;8.4;;
17949;SDS011;9100;48.700;9.316;2023-05-16T01:47:51;9.2;;;8.4;;
17949;SDS011;9100;48.700;9.316;2023-05-16T01:48:51;9.2;;;8.4;;
17949;SDS011;9100;48.700;9.316;2023-05-16T01:49:53;9;;;8.2;;
17949;SDS011;9100;48.700;9.316;2023-05-16T01:49:53;9;;;8.2;;
17949;SDS011;9100;48.700;9.316;2023-05-16T01:50:51;9;;;8.2;;
17949;SDS011;9100;48.700;9.316;2023-05-16T01:51:51;9;;;8.2;;
17949;SDS011;9100;48.700;9.316;2023-05-16T01:52:52;9;;;8.2;;
17949;SDS011;9100;48.700;9.316;2023-05-16T01:53:50;9;;;8.2;;
17949;SDS011;9100;48.700;9.316;2023-05-16T01:54:51;10.4;;;8.5;;
17949;SDS011;9100;48.700;9.316;2023-05-16T01:54:53;10.5;;;8.5;;
17949;SDS011;9100;48.700;9.316;2023-05-16T01:55:50;10.5;;;8.5;;
17949;SDS011;9100;48.700;9.316;2023-05-16T01:56:50;10.5;;;8.5;;
17949;SDS011;9100;48.700;9.316;2023-05-16T01:57:50;10.5;;;8.5;;
17949;SDS011;9100;48.700;9.316;2023-05-16T01:58:50;10.5;;;8.5;;
17949;SDS011;9100;48.700;9.316;2023-05-16T01:59:50;8.9;;;8.1;;
17949;SDS011;9100;48.700;9.316;2023-05-16T01:59:53;8.9;;;8.1;;
17949;SDS011;9100;48.700;9.316;2023-05-16T02:00:51;8.9;;;8.1;;
17949;SDS011;9100;48.700;9.316;2023-05-16T02:01:52;8.9;;;8.1;;
17949;SDS011;9100;48.700;9.316;2023-05-16T02:02:50;8.9;;;8.1;;
17949;SDS011;9100;48.700;9.316;2023-05-16T02:03:50;8.9;;;8.1;;
17949;SDS011;9100;48.700;9.316;2023-05-16T02:04:50;9.2;;;7.4;;
17949;SDS011;9100;48.700;9.316;2023-05-16T02:04:53;9.2;;;7.3;;
17949;SDS011;9100;48.700;9.316;2023-05-16T02:05:50;9.2;;;7.3;;
17949;SDS011;9100;48.700;9.316;2023-05-16T02:06:50;9.2;;;7.3;;
17949;SDS011;9100;48.700;9.316;2023-05-16T02:07:50;9.2;;;7.3;;
17949;SDS011;9100;48.700;9.316;2023-05-16T02:08:50;9.2;;;7.3;;
17949;SDS011;9100;48.700;9.316;2023-05-16T02:09:50;8.1;;;7.3;;
17949;SDS011;9100;48.700;9.316;2023-05-16T02:09:53;8.1;;;7.3;;
17949;SDS011;9100;48.700;9.316;2023-05-16T02:10:50;8.1;;;7.3;;
17949;SDS011;9100;48.700;9.316;2023-05-16T02:11:50;8.1;;;7.3;;
17949;SDS011;9100;48.700;9.316;2023-05-16T02:12:50;8.1;;;7.3;;
17949;SDS011;9100;48.700;9.316;2023-05-16T02:13:50;8.1;;;7.3;;
17949;SDS011;9100;48.700;9.316;2023-05-16T02:14:50;8.9;;;8.1;;
17949;SDS011;9100;48.700;9.316;2023-05-16T02:14:52;8.8;;;8;;
17949;SDS011;9100;48.700;9.316;2023-05-16T02:15:50;8.8;;;8;;
17949;SDS011;9100;48.700;9.316;2023-05-16T02:16:50;8.8;;;8;;
17949;SDS011;9100;48.700;9.316;2023-05-16T02:17:50;8.8;;;8;;
17949;SDS011;9100;48.700;9.316;2023-05-16T02:18:50;8.8;;;8;;
17949;SDS011;9100;48.700;9.316;2023-05-16T02:19:50;10.9;;;8.3;;
17949;SDS011;9100;48.700;9.316;2023-05-16T02:19:52;10.9;;;8.2;;
17949;SDS011;9100;48.700;9.316;2023-05-16T02:20:50;10.9;;;8.2;;
17949;SDS011;9100;48.700;9.316;2023-05-16T02:21:50;10.9;;;8.2;;
17949;SDS011;9100;48.700;9.316;2023-05-16T02:22:50;10.9;;;8.2;;
17949;SDS011;9100;48.700;9.316;2023-05-16T02:23:50;10.9;;;8.2;;
17949;SDS011;9100;48.700;9.316;2023-05-16T02:24:50;9.1;;;7.6;;
17949;SDS011;9100;48.700;9.316;2023-05-16T02:24:53;8.9;;;7.5;;
17949;SDS011;9100;48.700;9.316;2023-05-16T02:25:50;8.9;;;7.5;;
17949;SDS011;9100;48.700;9.316;2023-05-16T02:26:50;8.9;;;7.5;;
17949;SDS011;9100;48.700;9.316;2023-05-16T02:27:50;8.9;;;7.5;;
17949;SDS011;9100;48.700;9.316;2023-05-16T02:28:50;8.9;;;7.5;;
17949;SDS011;9100;48.700;9.316;2023-05-16T02:29:50;7.9;;;7.2;;
17949;SDS011;9100;48.700;9.316;2023-05-16T02:29:52;7.8;;;7.1;;
17949;SDS011;9100;48.700;9.316;2023-05-16T02:30:54;7.8;;;7.1;;
17949;SDS011;9100;48.700;9.316;2023-05-16T02:31:50;7.8;;;7.1;;
17949;SDS011;9100;48.700;9.316;2023-05-16T02:32:51;7.8;;;7.1;;
17949;SDS011;9100;48.700;9.316;2023-05-16T02:33:50;7.8;;;7.1;;
17949;SDS011;9100;48.700;9.316;2023-05-16T02:34:50;8.3;;;7.5;;
17949;SDS011;9100;48.700;9.316;2023-05-16T02:34:52;8.3;;;7.5;;
17949;SDS011;9100;48.700;9.316;2023-05-16T02:35:50;8.3;;;7.5;;
17949;SDS011;9100;48.700;9.316;2023-05-16T02:36:50;8.3;;;7.5;;
17949;SDS011;9100;48.700;9.316;2023-05-16T02:37:50;8.3;;;7.5;;
17949;SDS011;9100;48.700;9.316;2023-05-16T02:38:50;8.3;;;7.5;;
17949;SDS011;9100;48.700;9.316;2023-05-16T02:39:50;7.8;;;7;;
17949;SDS011;9100;48.700;9.316;2023-05-16T02:39:52;7.7;;;7;;
17949;SDS011;9100;48.700;9.316;2023-05-16T02:40:50;7.7;;;7;;
17949;SDS011;9100;48.700;9.316;2023-05-16T02:41:50;7.7;;;7;;
17949;SDS011;9100;48.700;9.316;2023-05-16T02:42:50;7.7;;;7;;
17949;SDS011;9100;48.700;9.316;2023-05-16T02:43:50;7.7;;;7;;
17949;SDS011;9100;48.700;9.316;2023-05-16T02:44:50;7.9;;;7.2;;
17949;SDS011;9100;48.700;9.316;2023-05-16T02:44:53;7.9;;;7.2;;
17949;SDS011;9100;48.700;9.316;2023-05-16T02:45:50;7.9;;;7.2;;
17949;SDS011;9100;48.700;9.316;2023-05-16T02:46:50;7.9;;;7.2;;
17949;SDS011;9100;48.700;9.316;2023-05-16T02:47:50;7.9;;;7.2;;
17949;SDS011;9100;48.700;9.316;2023-05-16T02:48:50;7.9;;;7.2;;
17949;SDS011;9100;48.700;9.316;2023-05-16T02:49:50;8.4;;;7.7;;
17949;SDS011;9100;48.700;9.316;2023-05-16T02:49:52;8.3;;;7.6;;
17949;SDS011;9100;48.700;9.316;2023-05-16T02:50:50;8.3;;;7.6;;
17949;SDS011;9100;48.700;9.316;2023-05-16T02:51:50;8.3;;;7.6;;
17949;SDS011;9100;48.700;9.316;2023-05-16T02:52:50;8.3;;;7.6;;
17949;SDS011;9100;48.700;9.316;2023-05-16T02:53:50;8.3;;;7.6;;
17949;SDS011;9100;48.700;9.316;2023-05-16T02:54:50;8.8;;;7.7;;
17949;SDS011;9100;48.700;9.316;2023-05-16T02:54:53;8.8;;;7.7;;
17949;SDS011;9100;48.700;9.316;2023-05-16T02:55:50;8.8;;;7.7;;
17949;SDS011;9100;48.700;9.316;2023-05-16T02:56:50;8.8;;;7.7;;
17949;SDS011;9100;48.700;9.316;2023-05-16T02:57:50;8.8;;;7.7;;
17949;SDS011;9100;48.700;9.316;2023-05-16T02:58:50;8.8;;;7.7;;
17949;SDS011;9100;48.700;9.316;2023-05-16T02:59:50;7.9;;;7.2;;
17949;SDS011;9100;48.700;9.316;2023-05-16T02:59:53;7.9;;;7.2;;
17949;SDS011;9100;48.700;9.316;2023-05-16T03:00:50;7.9;;;7.2;;
17949;SDS011;9100;48.700;9.316;2023-05-16T03:01:50;7.9;;;7.2;;
17949;SDS011;9100;48.700;9.316;2023-05-16T03:02:50;7.9;;;7.2;;
17949;SDS011;9100;48.700;9.316;2023-05-16T03:03:50;7.9;;;7.2;;
17949;SDS011;9100;48.700;9.316;2023-05-16T03:04:50;11.3;;;7.6;;
17949;SDS011;9100;48.700;9.316;2023-05-16T03:04:52;11.2;;;7.5;;
17949;SDS011;9100;48.700;9.316;2023-05-16T03:05:50;11.2;;;7.5;;
17949;SDS011;9100;48.700;9.316;2023-05-16T03:06:50;11.2;;;7.5;;
17949;SDS011;9100;48.700;9.316;2023-05-16T03:07:50;11.2;;;7.5;;
17949;SDS011;9100;48.700;9.316;2023-05-16T03:08:50;11.2;;;7.5;;
17949;SDS011;9100;48.700;9.316;2023-05-16T03:09:50;9.2;;;8.3;;
17949;SDS011;9100;48.700;9.316;2023-05-16T03:09:53;9.2;;;8.3;;
17949;SDS011;9100;48.700;9.316;2023-05-16T03:10:50;9.2;;;8.3;;
17949;SDS011;9100;48.700;9.316;2023-05-16T03:11:50;9.2;;;8.3;;
17949;SDS011;9100;48.700;9.316;2023-05-16T03:12:50;9.2;;;8.3;;
17949;SDS011;9100;48.700;9.316;2023-05-16T03:13:50;9.2;;;8.3;;
17949;SDS011;9100;48.700;9.316;2023-05-16T03:14:50;9.2;;;8.3;;
17949;SDS011;9100;48.700;9.316;2023-05-16T03:14:52;9.2;;;8.3;;
17949;SDS011;9100;48.700;9.316;2023-05-16T03:15:50;9.2;;;8.3;;
17949;SDS011;9100;48.700;9.316;2023-05-16T03:16:50;9.2;;;8.3;;
17949;SDS011;9100;48.700;9.316;2023-05-16T03:17:50;9.2;;;8.3;;
17949;SDS011;9100;48.700;9.316;2023-05-16T03:18:50;9.2;;;8.3;;
17949;SDS011;9100;48.700;9.316;2023-05-16T03:19:50;9;;;8.2;;
17949;SDS011;9100;48.700;9.316;2023-05-16T03:19:53;8.9;;;8.1;;
17949;SDS011;9100;48.700;9.316;2023-05-16T03:20:50;8.9;;;8.1;;
17949;SDS011;9100;48.700;9.316;2023-05-16T03:21:50;8.9;;;8.1;;
17949;SDS011;9100;48.700;9.316;2023-05-16T03:22:50;8.9;;;8.1;;
17949;SDS011;9100;48.700;9.316;2023-05-16T03:23:50;8.9;;;8.1;;
17949;SDS011;9100;48.700;9.316;2023-05-16T03:24:50;10.7;;;8.9;;
17949;SDS011;9100;48.700;9.316;2023-05-16T03:24:53;10.6;;;8.9;;
17949;SDS011;9100;48.700;9.316;2023-05-16T03:25:50;10.6;;;8.9;;
17949;SDS011;9100;48.700;9.316;2023-05-16T03:26:50;10.6;;;8.9;;
17949;SDS011;9100;48.700;9.316;2023-05-16T03:27:50;10.6;;;8.9;;
17949;SDS011;9100;48.700;9.316;2023-05-16T03:28:50;10.6;;;8.9;;
17949;SDS011;9100;48.700;9.316;2023-05-16T03:29:50;8.6;;;7.8;;
17949;SDS011;9100;48.700;9.316;2023-05-16T03:29:53;8.6;;;7.8;;
17949;SDS011;9100;48.700;9.316;2023-05-16T03:30:50;8.6;;;7.8;;
17949;SDS011;9100;48.700;9.316;2023-05-16T03:31:50;8.6;;;7.8;;
17949;SDS011;9100;48.700;9.316;2023-05-16T03:32:50;8.6;;;7.8;;
17949;SDS011;9100;48.700;9.316;2023-05-16T03:33:50;8.6;;;7.8;;
17949;SDS011;9100;48.700;9.316;2023-05-16T03:34:50;7.8;;;7.1;;
17949;SDS011;9100;48.700;9.316;2023-05-16T03:34:53;7.8;;;7.1;;
17949;SDS011;9100;48.700;9.316;2023-05-16T03:35:50;7.8;;;7.1;;
17949;SDS011;9100;48.700;9.316;2023-05-16T03:36:50;7.8;;;7.1;;
17949;SDS011;9100;48.700;9.316;2023-05-16T03:37:50;7.8;;;7.1;;
17949;SDS011;9100;48.700;9.316;2023-05-16T03:38:50;7.8;;;7.1;;
17949;SDS011;9100;48.700;9.316;2023-05-16T03:39:50;8.5;;;7.7;;
17949;SDS011;9100;48.700;9.316;2023-05-16T03:39:53;8.5;;;7.7;;
17949;SDS011;9100;48.700;9.316;2023-05-16T03:40:50;8.5;;;7.7;;
17949;SDS011;9100;48.700;9.316;2023-05-16T03:41:50;8.5;;;7.7;;
17949;SDS011;9100;48.700;9.316;2023-05-16T03:42:50;8.5;;;7.7;;
17949;SDS011;9100;48.700;9.316;2023-05-16T03:43:50;8.5;;;7.7;;
17949;SDS011;9100;48.700;9.316;2023-05-16T03:44:50;8.9;;;8.1;;
17949;SDS011;9100;48.700;9.316;2023-05-16T03:44:53;8.9;;;8.1;;
17949;SDS011;9100;48.700;9.316;2023-05-16T03:45:50;8.9;;;8.1;;
17949;SDS011;9100;48.700;9.316;2023-05-16T03:46:50;8.9;;;8.1;;
17949;SDS011;9100;48.700;9.316;2023-05-16T03:47:50;8.9;;;8.1;;
17949;SDS011;9100;48.700;9.316;2023-05-16T03:48:50;8.9;;;8.1;;
17949;SDS011;9100;48.700;9.316;2023-05-16T03:49:50;10.2;;;9.1;;
17949;SDS011;9100;48.700;9.316;2023-05-16T03:49:52;10.2;;;9.1;;
17949;SDS011;9100;48.700;9.316;2023-05-16T03:50:50;10.2;;;9.1;;
17949;SDS011;9100;48.700;9.316;2023-05-16T03:51:50;10.2;;;9.1;;
17949;SDS011;9100;48.700;9.316;2023-05-16T03:52:50;10.2;;;9.1;;
17949;SDS011;9100;48.700;9.316;2023-05-16T03:53:50;10.2;;;9.1;;
17949;SDS011;9100;48.700;9.316;2023-05-16T03:54:50;10.1;;;8.4;;
17949;SDS011;9100;48.700;9.316;2023-05-16T03:54:52;10;;;8.3;;
17949;SDS011;9100;48.700;9.316;2023-05-16T03:55:50;10;;;8.3;;
17949;SDS011;9100;48.700;9.316;2023-05-16T03:56:50;10;;;8.3;;
17949;SDS011;9100;48.700;9.316;2023-05-16T03:57:50;10;;;8.3;;
17949;SDS011;9100;48.700;9.316;2023-05-16T03:58:50;10;;;8.3;;
17949;SDS011;9100;48.700;9.316;2023-05-16T03:59:50;9.9;;;8.5;;
17949;SDS011;9100;48.700;9.316;2023-05-16T03:59:53;9.9;;;8.4;;
17949;SDS011;9100;48.700;9.316;2023-05-16T04:00:50;9.9;;;8.4;;
17949;SDS011;9100;48.700;9.316;2023-05-16T04:01:50;9.9;;;8.4;;
17949;SDS011;9100;48.700;9.316;2023-05-16T04:02:50;9.9;;;8.4;;
17949;SDS011;9100;48.700;9.316;2023-05-16T04:03:50;9.9;;;8.4;;
17949;SDS011;9100;48.700;9.316;2023-05-16T04:04:50;9.5;;;8.5;;
17949;SDS011;9100;48.700;9.316;2023-05-16T04:04:53;9.4;;;8.4;;
17949;SDS011;9100;48.700;9.316;2023-05-16T04:05:50;9.4;;;8.4;;
17949;SDS011;9100;48.700;9.316;2023-05-16T04:06:50;9.4;;;8.4;;
17949;SDS011;9100;48.700;9.316;2023-05-16T04:07:50;9.4;;;8.4;;
17949;SDS011;9100;48.700;9.316;2023-05-16T04:08:50;9.4;;;8.4;;
17949;SDS011;9100;48.700;9.316;2023-05-16T04:09:50;11.2;;;9;;
17949;SDS011;9100;48.700;9.316;2023-05-16T04:09:53;11.2;;;9;;
17949;SDS011;9100;48.700;9.316;2023-05-16T04:10:50;11.2;;;9;;
17949;SDS011;9100;48.700;9.316;2023-05-16T04:11:50;11.2;;;9;;
17949;SDS011;9100;48.700;9.316;2023-05-16T04:12:50;11.2;;;9;;
17949;SDS011;9100;48.700;9.316;2023-05-16T04:13:50;11.2;;;9;;
17949;SDS011;9100;48.700;9.316;2023-05-16T04:14:50;10.6;;;9.5;;
17949;SDS011;9100;48.700;9.316;2023-05-16T04:14:53;10.7;;;9.3;;
17949;SDS011;9100;48.700;9.316;2023-05-16T04:15:50;10.7;;;9.3;;
17949;SDS011;9100;48.700;9.316;2023-05-16T04:16:50;10.7;;;9.3;;
17949;SDS011;9100;48.700;9.316;2023-05-16T04:17:50;10.7;;;9.3;;
17949;SDS011;9100;48.700;9.316;2023-05-16T04:18:50;10.7;;;9.3;;
17949;SDS011;9100;48.700;9.316;2023-05-16T04:19:50;13.8;;;10.1;;
17949;SDS011;9100;48.700;9.316;2023-05-16T04:19:53;13.9;;;10.1;;
17949;SDS011;9100;48.700;9.316;2023-05-16T04:20:50;13.9;;;10.1;;
17949;SDS011;9100;48.700;9.316;2023-05-16T04:21:50;13.9;;;10.1;;
17949;SDS011;9100;48.700;9.316;2023-05-16T04:22:50;13.9;;;10.1;;
17949;SDS011;9100;48.700;9.316;2023-05-16T04:23:50;13.9;;;10.1;;
17949;SDS011;9100;48.700;9.316;2023-05-16T04:24:50;11.9;;;10.3;;
17949;SDS011;9100;48.700;9.316;2023-05-16T04:24:53;11.8;;;10.3;;
17949;SDS011;9100;48.700;9.316;2023-05-16T04:25:50;11.8;;;10.3;;
17949;SDS011;9100;48.700;9.316;2023-05-16T04:26:50;11.8;;;10.3;;
17949;SDS011;9100;48.700;9.316;2023-05-16T04:27:50;11.8;;;10.3;;
17949;SDS011;9100;48.700;9.316;2023-05-16T04:28:50;11.8;;;10.3;;
17949;SDS011;9100;48.700;9.316;2023-05-16T04:29:50;14.4;;;12.9;;
17949;SDS011;9100;48.700;9.316;2023-05-16T04:29:53;14.3;;;12.8;;
17949;SDS011;9100;48.700;9.316;2023-05-16T04:30:50;14.3;;;12.8;;
17949;SDS011;9100;48.700;9.316;2023-05-16T04:31:50;14.3;;;12.8;;
17949;SDS011;9100;48.700;9.316;2023-05-16T04:32:50;14.3;;;12.8;;
17949;SDS011;9100;48.700;9.316;2023-05-16T04:33:50;14.3;;;12.8;;
17949;SDS011;9100;48.700;9.316;2023-05-16T04:34:50;16.3;;;14.6;;
17949;SDS011;9100;48.700;9.316;2023-05-16T04:34:52;16.3;;;14.6;;
17949;SDS011;9100;48.700;9.316;2023-05-16T04:35:50;16.3;;;14.6;;
17949;SDS011;9100;48.700;9.316;2023-05-16T04:36:50;16.3;;;14.6;;
17949;SDS011;9100;48.700;9.316;2023-05-16T04:37:50;16.3;;;14.6;;
17949;SDS011;9100;48.700;9.316;2023-05-16T04:38:50;16.3;;;14.6;;
17949;SDS011;9100;48.700;9.316;2023-05-16T04:39:50;23.3;;;18.5;;
17949;SDS011;9100;48.700;9.316;2023-05-16T04:39:53;23.3;;;18.4;;
17949;SDS011;9100;48.700;9.316;2023-05-16T04:40:50;23.3;;;18.4;;
17949;SDS011;9100;48.700;9.316;2023-05-16T04:41:50;23.3;;;18.4;;
17949;SDS011;9100;48.700;9.316;2023-05-16T04:42:50;23.3;;;18.4;;
17949;SDS011;9100;48.700;9.316;2023-05-16T04:43:50;23.3;;;18.4;;
17949;SDS011;9100;48.700;9.316;2023-05-16T04:44:50;35.1;;;21.9;;
17949;SDS011;9100;48.700;9.316;2023-05-16T04:44:53;35.2;;;21.8;;
17949;SDS011;9100;48.700;9.316;2023-05-16T04:45:50;35.2;;;21.8;;
17949;SDS011;9100;48.700;9.316;2023-05-16T04:46:50;35.2;;;21.8;;
17949;SDS011;9100;48.700;9.316;2023-05-16T04:47:50;35.2;;;21.8;;
17949;SDS011;9100;48.700;9.316;2023-05-16T04:48:50;35.2;;;21.8;;
17949;SDS011;9100;48.700;9.316;2023-05-16T04:49:50;32.2;;;24.8;;
17949;SDS011;9100;48.700;9.316;2023-05-16T04:49:53;32;;;24.6;;
17949;SDS011;9100;48.700;9.316;2023-05-16T04:50:50;32;;;24.6;;
17949;SDS011;9100;48.700;9.316;2023-05-16T04:51:50;32;;;24.6;;
17949;SDS011;9100;48.700;9.316;2023-05-16T04:52:50;32;;;24.6;;
17949;SDS011;9100;48.700;9.316;2023-05-16T04:53:50;32;;;24.6;;
17949;SDS011;9100;48.700;9.316;2023-05-16T04:54:50;35;;;26.1;;
17949;SDS011;9100;48.700;9.316;2023-05-16T04:54:53;35;;;26;;
17949;SDS011;9100;48.700;9.316;2023-05-16T04:55:50;35;;;26;;
17949;SDS011;9100;48.700;9.316;2023-05-16T04:56:50;35;;;26;;
17949;SDS011;9100;48.700;9.316;2023-05-16T04:57:50;35;;;26;;
17949;SDS011;9100;48.700;9.316;2023-05-16T04:58:50;35;;;26;;
17949;SDS011;9100;48.700;9.316;2023-05-16T04:59:50;37.1;;;27.5;;
17949;SDS011;9100;48.700;9.316;2023-05-16T04:59:53;37;;;27.4;;
17949;SDS011;9100;48.700;9.316;2023-05-16T05:00:50;37;;;27.4;;
17949;SDS011;9100;48.700;9.316;2023-05-16T05:01:50;37;;;27.4;;
17949;SDS011;9100;48.700;9.316;2023-05-16T05:02:50;37;;;27.4;;
17949;SDS011;9100;48.700;9.316;2023-05-16T05:03:50;37;;;27.4;;
17949;SDS011;9100;48.700;9.316;2023-05-16T05:04:50;39.6;;;28.4;;
17949;SDS011;9100;48.700;9.316;2023-05-16T05:04:53;39.2;;;28.4;;
17949;SDS011;9100;48.700;9.316;2023-05-16T05:05:50;39.2;;;28.4;;
17949;SDS011;9100;48.700;9.316;2023-05-16T05:06:50;39.2;;;28.4;;
17949;SDS011;9100;48.700;9.316;2023-05-16T05:07:50;39.2;;;28.4;;
17949;SDS011;9100;48.700;9.316;2023-05-16T05:08:50;39.2;;;28.4;;
17949;SDS011;9100;48.700;9.316;2023-05-16T05:09:50;47.1;;;30.1;;
17949;SDS011;9100;48.700;9.316;2023-05-16T05:09:53;47.1;;;30.1;;
17949;SDS011;9100;48.700;9.316;2023-05-16T05:10:50;47.1;;;30.1;;
17949;SDS011;9100;48.700;9.316;2023-05-16T05:11:50;47.1;;;30.1;;
17949;SDS011;9100;48.700;9.316;2023-05-16T05:12:50;47.1;;;30.1;;
17949;SDS011;9100;48.700;9.316;2023-05-16T05:13:50;47.1;;;30.1;;
17949;SDS011;9100;48.700;9.316;2023-05-16T05:14:50;38.1;;;29.5;;
17949;SDS011;9100;48.700;9.316;2023-05-16T05:14:53;38.3;;;29.5;;
17949;SDS011;9100;48.700;9.316;2023-05-16T05:15:50;38.3;;;29.5;;